LIPR/RMI METAR and TAF weather

Enter ICAO airport designator
Station Type Date Time Source
LIPR METAR 2019/08/24 22:50 UTC NOAA

LIPR 242250Z AUTO 27004KT 9999 FEW021/// BKN130/// 23/18 Q1017


Station Type Date Time Source
LIPR Decoded METAR 2019/08/24 22:50 UTC NOAA

Station name not available
Aug 24, 2019 - 06:50 PM EDT / 2019.08.24 2250 UTC
Wind: from the W (270 degrees) at 5 MPH (4 KT):0
Visibility: greater than 7 mile(s):0
Sky conditions: mostly cloudy
Temperature: 73 F (23 C)
Dew Point: 64 F (18 C)
Relative Humidity: 73%
Pressure (altimeter): 30.03 in. Hg (1017 hPa)
ob: LIPR 242250Z AUTO 27004KT 9999 FEW021/// BKN130/// 23/18 Q1017
cycle: 23

Station Type Date Time Source
LIPR TAF 2016/08/23 03:00 UTC NOAA

TAF LIPR 230200Z 2303/2312 04007KT CAVOK
BECMG 2308/2310 02010KT

Example: see airport list